Time;durP1;ratioP1;P1;durP2;ratioP2;P2;SDS_P1;SDS_P2;PMS_P1;PMS_P2;Temp;Humidity;BMP_temperature;BMP_pressure;BME280_temperature;BME280_humidity;BME280_pressure;Samples;Min_cycle;Max_cycle;Signal;HPM_P1;HPM_P2
2023/08/19 00:00:36;;;;;;;7.50;4.80;;;;;;;25.52;43.35;95224.72;6035563;28;112729;-64
2023/08/19 00:03:39;;;;;;;5.07;4.50;;;;;;;25.48;43.72;95221.91;6036150;28;109753;-64
2023/08/19 00:06:42;;;;;;;6.75;4.63;;;;;;;25.37;43.64;95216.16;6039844;28;109859;-63
2023/08/19 00:09:47;;;;;;;5.68;4.60;;;;;;;25.38;43.89;95216.94;6050210;28;109834;-63
2023/08/19 00:12:50;;;;;;;6.85;4.50;;;;;;;25.45;43.58;95217.19;6037839;28;109610;-63
2023/08/19 00:15:53;;;;;;;9.03;4.40;;;;;;;25.48;43.73;95226.47;6040450;28;109902;-63
2023/08/19 00:18:57;;;;;;;7.60;4.50;;;;;;;25.49;43.68;95230.72;6063138;28;111036;-63
2023/08/19 00:22:00;;;;;;;5.00;4.30;;;;;;;25.44;43.84;95226.34;6063222;28;109952;-63
2023/08/19 00:25:05;;;;;;;6.07;4.53;;;;;;;25.43;43.77;95218.63;6052900;28;110870;-63
2023/08/19 00:28:08;;;;;;;5.20;4.22;;;;;;;25.40;44.01;95219.28;6062005;28;110445;-64
2023/08/19 00:31:11;;;;;;;6.40;4.03;;;;;;;25.32;43.90;95210.91;6062633;28;109932;-63
2023/08/19 00:34:15;;;;;;;5.80;4.60;;;;;;;25.30;43.90;95207.00;6046993;28;109623;-64
2023/08/19 00:37:18;;;;;;;7.10;4.70;;;;;;;25.32;43.76;95212.81;6032720;28;110932;-64
2023/08/19 00:40:23;;;;;;;5.43;4.43;;;;;;;25.32;43.91;95196.72;6039870;28;109826;-64
2023/08/19 00:43:26;;;;;;;4.50;4.10;;;;;;;25.31;43.52;95200.53;6050505;28;110028;-62
2023/08/19 00:46:29;;;;;;;4.80;4.30;;;;;;;25.48;43.40;95197.78;6052185;28;110389;-64
2023/08/19 00:49:33;;;;;;;4.57;4.17;;;;;;;25.46;43.55;95191.19;6057893;28;110287;-64
2023/08/19 00:52:37;;;;;;;5.13;4.25;;;;;;;25.42;43.56;95199.09;6073346;28;109832;-65
2023/08/19 00:55:42;;;;;;;5.10;4.50;;;;;;;25.36;43.57;95209.19;6072385;28;109984;-64
2023/08/19 00:58:46;;;;;;;6.40;4.17;;;;;;;25.34;43.39;95197.97;6053088;28;110245;-64
2023/08/19 01:01:49;;;;;;;4.20;3.80;;;;;;;25.37;43.37;95205.44;6057138;28;109738;-65
2023/08/19 01:04:52;;;;;;;5.93;4.00;;;;;;;25.39;43.12;95205.09;6056120;28;110245;-64
2023/08/19 01:07:58;;;;;;;7.40;3.90;;;;;;;25.05;43.39;95208.69;6038564;28;110173;-64
2023/08/19 01:11:11;;;;;;;5.18;4.25;;;;;;;25.04;43.45;95199.84;6035032;28;110149;-64
2023/08/19 01:14:27;;;;;;;5.53;4.27;;;;;;;25.11;43.25;95201.25;6061648;28;109809;-63
2023/08/19 01:17:31;;;;;;;5.55;4.32;;;;;;;25.21;43.31;95200.91;6055528;28;109733;-63
2023/08/19 01:20:35;;;;;;;6.33;4.10;;;;;;;25.15;43.22;95189.56;6052200;28;110956;-65
2023/08/19 01:23:43;;;;;;;5.60;4.00;;;;;;;25.13;43.57;95196.34;6062073;28;110223;-63
2023/08/19 01:26:47;;;;;;;4.95;4.20;;;;;;;25.13;43.89;95196.34;6061877;28;109374;-63
2023/08/19 01:29:51;;;;;;;5.65;4.50;;;;;;;25.14;43.56;95189.88;6061620;28;110294;-65
2023/08/19 01:32:54;;;;;;;5.37;4.47;;;;;;;25.03;43.67;95190.25;6050603;28;110001;-64
2023/08/19 01:36:04;;;;;;;5.50;4.40;;;;;;;25.06;43.85;95188.81;6052695;28;110127;-65
2023/08/19 01:39:08;;;;;;;4.82;4.32;;;;;;;25.01;43.86;95187.09;6059722;28;110045;-63
2023/08/19 01:42:16;;;;;;;4.68;4.25;;;;;;;25.00;43.87;95188.19;6047139;28;110081;-63
2023/08/19 01:45:19;;;;;;;5.10;4.60;;;;;;;24.99;43.67;95183.16;6033760;28;109860;-63
2023/08/19 01:48:22;;;;;;;6.93;4.57;;;;;;;24.96;43.86;95173.88;6062392;28;109928;-64
2023/08/19 01:51:28;;;;;;;6.30;4.90;;;;;;;24.99;44.09;95175.13;6061713;28;109979;-63
2023/08/19 01:54:32;;;;;;;5.30;4.40;;;;;;;24.91;44.05;95171.41;6055581;28;109924;-65
2023/08/19 01:57:36;;;;;;;6.43;4.37;;;;;;;24.94;43.95;95178.78;6065281;28;111073;-65
2023/08/19 02:00:39;;;;;;;7.82;4.85;;;;;;;24.94;43.74;95176.09;6066087;28;109514;-63
2023/08/19 02:03:42;;;;;;;5.63;4.80;;;;;;;24.98;43.92;95171.66;6065092;28;109906;-63
2023/08/19 02:06:45;;;;;;;5.30;4.10;;;;;;;24.98;44.03;95171.66;6037323;28;110801;-63
2023/08/19 02:09:48;;;;;;;6.47;4.63;;;;;;;24.99;43.67;95181.28;6063400;28;109861;-63
2023/08/19 02:12:52;;;;;;;5.75;4.78;;;;;;;24.95;43.90;95179.56;6065109;28;110164;-62
2023/08/19 02:15:56;;;;;;;6.07;4.80;;;;;;;25.00;43.86;95185.53;6065321;28;109837;-63
2023/08/19 02:19:00;;;;;;;5.72;4.90;;;;;;;25.11;43.52;95180.59;6054270;28;109767;-63
2023/08/19 02:22:04;;;;;;;5.95;4.93;;;;;;;25.06;43.72;95173.53;6077074;28;109952;-63
2023/08/19 02:25:08;;;;;;;6.88;4.90;;;;;;;25.12;43.64;95186.75;6079318;28;109791;-64
2023/08/19 02:28:12;;;;;;;5.45;4.95;;;;;;;24.96;44.07;95189.94;6060496;28;110878;-64
2023/08/19 02:31:15;;;;;;;5.68;4.90;;;;;;;24.88;44.14;95182.75;6055889;28;110976;-64
2023/08/19 02:34:18;;;;;;;7.75;5.32;;;;;;;24.89;44.01;95178.97;6065593;28;109937;-64
2023/08/19 02:37:22;;;;;;;6.65;4.93;;;;;;;24.88;44.15;95188.09;6064485;28;109847;-63
2023/08/19 02:40:25;;;;;;;5.97;4.80;;;;;;;24.84;43.96;95181.78;6051996;28;109763;-63
2023/08/19 02:43:29;;;;;;;6.28;5.10;;;;;;;24.86;44.25;95184.94;6063840;28;109900;-64
2023/08/19 02:46:32;;;;;;;5.35;4.85;;;;;;;24.78;44.37;95183.88;6060802;28;110003;-63
2023/08/19 02:49:36;;;;;;;5.53;4.57;;;;;;;24.83;44.21;95185.56;6060383;28;109955;-63
2023/08/19 02:52:39;;;;;;;6.03;4.82;;;;;;;24.81;44.28;95184.31;6061218;28;111576;-73
2023/08/19 02:55:42;;;;;;;6.10;4.60;;;;;;;24.73;44.10;95184.03;6056175;28;111283;-73
2023/08/19 02:58:47;;;;;;;7.07;4.90;;;;;;;24.71;44.47;95188.16;6061012;28;109819;-74
2023/08/19 03:01:50;;;;;;;5.43;4.85;;;;;;;24.69;44.31;95185.75;6060840;28;110897;-73
2023/08/19 03:04:53;;;;;;;6.10;4.88;;;;;;;24.68;44.23;95183.41;6056987;28;109969;-72
2023/08/19 03:07:56;;;;;;;7.57;5.10;;;;;;;24.75;44.30;95178.38;6062592;28;109822;-72
2023/08/19 03:10:59;;;;;;;5.50;5.00;;;;;;;24.64;44.25;95191.25;6062762;28;110066;-73
2023/08/19 03:14:04;;;;;;;6.95;5.03;;;;;;;24.50;44.49;95188.75;6053491;28;109964;-71
2023/08/19 03:17:07;;;;;;;5.43;4.90;;;;;;;24.46;44.62;95187.06;6061866;28;109940;-73
2023/08/19 03:20:11;;;;;;;6.00;5.40;;;;;;;24.41;44.71;95190.69;6063392;28;109953;-72
2023/08/19 03:23:14;;;;;;;5.78;4.90;;;;;;;24.44;44.48;95192.72;6063873;28;110290;-72
2023/08/19 03:26:17;;;;;;;5.60;5.10;;;;;;;24.42;44.57;95192.25;6052935;28;109910;-72
2023/08/19 03:29:24;;;;;;;6.13;5.25;;;;;;;24.43;44.48;95195.72;6061969;28;109817;-72
2023/08/19 03:32:27;;;;;;;7.97;5.30;;;;;;;24.37;44.62;95200.44;6041166;28;110177;-72
2023/08/19 03:35:30;;;;;;;5.78;5.00;;;;;;;24.37;44.70;95197.78;6061960;28;111881;-73
2023/08/19 03:38:33;;;;;;;8.10;5.95;;;;;;;24.25;44.86;95202.97;6051851;28;109860;-72
2023/08/19 03:41:37;;;;;;;6.70;5.20;;;;;;;24.28;44.93;95190.84;6059055;28;111063;-72
2023/08/19 03:44:41;;;;;;;6.40;5.10;;;;;;;24.25;44.43;95196.84;6062429;28;110263;-72
2023/08/19 03:47:44;;;;;;;6.30;5.33;;;;;;;24.17;44.98;95196.50;6059269;28;109794;-71
2023/08/19 03:50:48;;;;;;;10.70;5.47;;;;;;;24.15;45.28;95187.22;6045826;28;109852;-72
2023/08/19 03:53:51;;;;;;;6.95;5.20;;;;;;;24.18;44.78;95181.25;6040898;28;109923;-71
2023/08/19 03:56:54;;;;;;;5.88;5.00;;;;;;;24.20;44.72;95187.09;6044087;28;110310;-72
2023/08/19 03:59:58;;;;;;;6.75;5.20;;;;;;;24.30;44.50;95188.63;6052466;28;110939;-72
2023/08/19 04:03:02;;;;;;;5.97;5.37;;;;;;;24.35;44.05;95183.91;6055058;28;110419;-72
2023/08/19 04:06:05;;;;;;;7.30;5.30;;;;;;;24.41;43.91;95188.00;6060656;28;109765;-72
2023/08/19 04:09:08;;;;;;;6.28;5.68;;;;;;;24.54;43.70;95193.50;6040664;28;109964;-72
2023/08/19 04:12:11;;;;;;;7.25;5.47;;;;;;;24.76;43.45;95191.44;6028910;28;111735;-71
2023/08/19 04:15:17;;;;;;;9.50;8.60;;;;;;;24.65;43.64;95195.50;6062816;28;110015;-72
2023/08/19 04:18:20;;;;;;;6.45;5.85;;;;;;;24.78;43.04;95194.56;6064515;28;109624;-72
2023/08/19 04:21:25;;;;;;;5.50;5.00;;;;;;;24.63;43.02;95199.63;6064433;28;113693;-72
2023/08/19 04:24:30;;;;;;;6.60;5.80;;;;;;;24.45;43.82;95205.00;6056908;28;109761;-72
2023/08/19 04:27:33;;;;;;;5.47;4.97;;;;;;;24.45;43.81;95204.22;6046302;28;110043;-72
2023/08/19 04:30:37;;;;;;;6.40;5.90;;;;;;;24.54;43.73;95209.56;6058082;28;109010;-72
2023/08/19 04:33:40;;;;;;;6.13;5.53;;;;;;;24.64;43.55;95206.53;6042114;28;109672;-72
2023/08/19 04:36:44;;;;;;;6.38;5.78;;;;;;;24.63;43.72;95210.31;6044035;28;110236;-73
2023/08/19 04:39:47;;;;;;;7.97;7.18;;;;;;;24.53;43.96;95218.66;6055715;28;110447;-72
2023/08/19 04:42:50;;;;;;;8.88;5.75;;;;;;;24.46;44.24;95209.25;6059942;28;110279;-72
2023/08/19 04:45:55;;;;;;;6.95;5.60;;;;;;;24.42;44.16;95223.56;6048944;28;110082;-71
2023/08/19 04:48:58;;;;;;;7.60;5.70;;;;;;;24.43;44.76;95225.13;6062494;28;110157;-71
2023/08/19 04:52:01;;;;;;;8.30;5.20;;;;;;;24.33;44.38;95226.22;6062561;28;109916;-72
2023/08/19 04:55:06;;;;;;;6.40;5.77;;;;;;;24.60;44.02;95225.13;6060241;28;109522;-71
2023/08/19 04:58:10;;;;;;;6.80;5.60;;;;;;;24.69;43.69;95225.91;6047964;28;109917;-72
2023/08/19 05:01:14;;;;;;;5.57;5.07;;;;;;;24.61;44.23;95224.00;6081806;28;110010;-73
2023/08/19 05:04:18;;;;;;;5.80;5.30;;;;;;;24.59;43.95;95234.25;6055509;28;110510;-71
2023/08/19 05:07:21;;;;;;;6.20;5.15;;;;;;;24.47;44.12;95236.78;6042910;28;110107;-71
2023/08/19 05:10:24;;;;;;;6.25;5.65;;;;;;;24.47;44.34;95232.22;6055856;28;110108;-69
2023/08/19 05:13:28;;;;;;;6.10;5.60;;;;;;;24.60;44.25;95235.03;6058580;28;109877;-71
2023/08/19 05:16:32;;;;;;;7.63;5.88;;;;;;;24.55;44.14;95233.31;6061861;28;110854;-71
2023/08/19 05:19:36;;;;;;;6.05;5.38;;;;;;;24.61;44.24;95228.59;6052550;28;110292;-71
2023/08/19 05:22:39;;;;;;;8.13;5.57;;;;;;;24.58;44.04;95231.91;6060422;28;109972;-72
2023/08/19 05:25:42;;;;;;;6.95;5.65;;;;;;;24.55;44.44;95221.84;6064921;28;109756;-71
2023/08/19 05:28:45;;;;;;;7.60;6.95;;;;;;;24.83;44.11;95232.97;6047802;28;109930;-72
2023/08/19 05:31:50;;;;;;;11.05;10.15;;;;;;;24.97;44.07;95225.53;6049274;28;109898;-70
2023/08/19 05:34:53;;;;;;;9.90;8.97;;;;;;;25.17;43.63;95229.41;6066149;28;109701;-70
2023/08/19 05:37:56;;;;;;;10.40;9.27;;;;;;;25.28;43.35;95236.78;6067454;28;109755;-70
2023/08/19 05:40:59;;;;;;;28.67;11.37;;;;;;;25.33;43.65;95225.88;6061700;28;110149;-69
2023/08/19 05:44:02;;;;;;;28.37;11.70;;;;;;;25.45;43.44;95222.56;6056876;28;110027;-70
2023/08/19 05:47:09;;;;;;;12.27;9.25;;;;;;;25.41;43.76;95227.00;6062338;28;109760;-71
2023/08/19 05:50:12;;;;;;;18.17;10.32;;;;;;;25.33;44.20;95233.13;6056197;28;110884;-68
2023/08/19 05:53:15;;;;;;;13.23;7.47;;;;;;;25.22;44.06;95227.38;6055226;28;114424;-69
2023/08/19 05:56:18;;;;;;;11.43;7.10;;;;;;;25.20;44.08;95223.41;6065987;28;110047;-71
2023/08/19 05:59:21;;;;;;;8.75;6.07;;;;;;;25.10;44.08;95216.53;6066479;28;109833;-73
2023/08/19 06:02:26;;;;;;;8.82;5.45;;;;;;;24.89;44.71;95221.00;6058763;28;109543;-71
2023/08/19 06:05:29;;;;;;;7.40;5.40;;;;;;;24.84;44.67;95221.94;6032237;28;109528;-70
2023/08/19 06:08:32;;;;;;;7.45;4.95;;;;;;;24.78;44.73;95221.34;6061890;28;110229;-70
2023/08/19 06:11:35;;;;;;;5.90;5.40;;;;;;;24.92;44.93;95225.72;6065878;28;110014;-71
2023/08/19 06:14:38;;;;;;;6.90;5.40;;;;;;;24.84;45.26;95234.53;6064473;28;111598;-70
2023/08/19 06:17:43;;;;;;;6.70;5.40;;;;;;;24.92;45.29;95245.25;6043676;28;110222;-70
2023/08/19 06:20:46;;;;;;;5.90;4.85;;;;;;;25.07;44.98;95250.09;6043532;28;109855;-71
2023/08/19 06:23:49;;;;;;;5.80;5.20;;;;;;;25.06;44.87;95250.41;6064089;28;111314;-73
2023/08/19 06:26:52;;;;;;;7.03;5.40;;;;;;;25.32;44.42;95245.75;6057872;28;110949;-73
2023/08/19 06:29:55;;;;;;;6.90;5.32;;;;;;;25.36;44.14;95245.91;6046531;28;110370;-73
2023/08/19 06:33:00;;;;;;;6.38;5.40;;;;;;;25.48;44.20;95247.91;6067357;28;110139;-72
2023/08/19 06:36:04;;;;;;;6.43;5.60;;;;;;;25.65;43.79;95255.88;6066169;28;110166;-72
2023/08/19 06:39:13;;;;;;;6.35;4.90;;;;;;;25.61;43.94;95247.69;6056923;28;109999;-72
2023/08/19 06:42:19;;;;;;;6.35;5.80;;;;;;;25.94;43.71;95247.03;6053565;28;110002;-72
2023/08/19 06:45:24;;;;;;;7.10;4.90;;;;;;;26.09;42.74;95245.72;6055331;28;112763;-72
2023/08/19 06:48:29;;;;;;;6.50;5.80;;;;;;;26.19;42.35;95238.06;6065997;28;109912;-73
2023/08/19 06:51:33;;;;;;;7.18;4.63;;;;;;;26.26;41.41;95249.06;6056142;28;110131;-73
2023/08/19 06:54:37;;;;;;;5.50;4.10;;;;;;;26.37;40.78;95240.59;6063945;28;109951;-71
2023/08/19 06:57:47;;;;;;;4.97;4.20;;;;;;;26.46;40.03;95244.00;6064314;28;108847;-72
2023/08/19 07:00:56;;;;;;;5.03;3.80;;;;;;;26.53;39.19;95241.56;6059926;28;111320;-70
2023/08/19 07:04:01;;;;;;;3.80;3.40;;;;;;;26.49;37.64;95235.28;6040793;28;109906;-72
2023/08/19 07:07:06;;;;;;;5.30;3.20;;;;;;;26.46;37.11;95231.38;6057595;28;110230;-72
2023/08/19 07:10:11;;;;;;;4.50;3.40;;;;;;;26.35;36.61;95230.19;6047609;28;108916;-73
2023/08/19 07:13:14;;;;;;;5.88;3.30;;;;;;;26.34;36.62;95235.88;6051141;28;110520;-73
2023/08/19 07:16:20;;;;;;;4.50;3.30;;;;;;;26.37;37.28;95233.34;6063803;28;109971;-74
2023/08/19 07:19:27;;;;;;;4.20;3.40;;;;;;;26.46;37.26;95228.69;6061675;28;111168;-73
2023/08/19 07:22:31;;;;;;;8.07;3.30;;;;;;;26.59;37.36;95232.22;6060562;28;110040;-73
2023/08/19 07:25:36;;;;;;;6.38;3.60;;;;;;;26.66;38.15;95235.16;6054814;28;110025;-71
2023/08/19 07:28:40;;;;;;;5.25;3.70;;;;;;;26.64;38.20;95236.63;6049238;28;110261;-74
2023/08/19 07:31:44;;;;;;;4.75;3.58;;;;;;;26.76;38.23;95229.41;6060681;28;109985;-73
2023/08/19 07:34:48;;;;;;;4.30;3.60;;;;;;;26.85;38.90;95222.03;6037472;28;109946;-72
2023/08/19 07:37:51;;;;;;;6.32;4.07;;;;;;;26.94;38.98;95221.16;6038817;28;109723;-72
2023/08/19 07:40:54;;;;;;;5.43;4.00;;;;;;;26.87;39.81;95217.09;6063780;28;110052;-71
2023/08/19 07:43:57;;;;;;;8.90;4.18;;;;;;;26.92;39.00;95218.03;6050679;28;109921;-73
2023/08/19 07:47:01;;;;;;;6.20;3.90;;;;;;;27.00;38.19;95223.28;6050515;28;109966;-70
2023/08/19 07:50:07;;;;;;;4.43;3.83;;;;;;;27.09;38.36;95221.31;6064950;28;109826;-72
2023/08/19 07:53:12;;;;;;;4.30;3.90;;;;;;;27.20;38.47;95220.84;6053123;28;109857;-76
2023/08/19 07:56:16;;;;;;;5.37;3.70;;;;;;;27.18;38.31;95230.03;6056593;28;109911;-77
2023/08/19 07:59:19;;;;;;;4.73;4.27;;;;;;;27.20;39.01;95229.69;6054837;28;110856;-77
2023/08/19 08:02:23;;;;;;;6.30;3.90;;;;;;;27.35;38.77;95226.38;6065880;28;111277;-75
2023/08/19 08:05:30;;;;;;;5.60;4.00;;;;;;;27.31;38.21;95222.81;6059352;28;110004;-76
2023/08/19 08:08:34;;;;;;;5.03;3.92;;;;;;;27.29;37.39;95219.69;6064061;28;109748;-69
2023/08/19 08:11:37;;;;;;;6.20;4.20;;;;;;;27.31;37.90;95225.50;6055547;28;112078;-73
2023/08/19 08:14:43;;;;;;;5.07;3.60;;;;;;;27.36;37.96;95221.78;6063396;28;110197;-74
2023/08/19 08:17:46;;;;;;;9.55;4.70;;;;;;;27.51;38.15;95223.03;6063363;28;109996;-73
2023/08/19 08:20:50;;;;;;;5.60;4.05;;;;;;;27.44;37.21;95228.97;6055045;28;112672;-74
2023/08/19 08:23:54;;;;;;;5.53;3.97;;;;;;;27.39;37.68;95224.63;6057418;28;109958;-73
2023/08/19 08:26:57;;;;;;;5.72;3.80;;;;;;;27.46;38.25;95232.13;6064993;28;109948;-72
2023/08/19 08:30:00;;;;;;;4.83;3.90;;;;;;;27.51;37.80;95223.81;6059977;28;110255;-72
2023/08/19 08:33:04;;;;;;;6.70;4.20;;;;;;;27.68;37.85;95212.84;6031428;28;110928;-73
2023/08/19 08:36:09;;;;;;;5.00;4.10;;;;;;;27.57;38.40;95216.34;6047826;28;108865;-73
2023/08/19 08:39:14;;;;;;;6.10;4.20;;;;;;;27.62;37.59;95216.88;6049644;28;109927;-74
2023/08/19 08:42:17;;;;;;;4.70;3.83;;;;;;;27.73;36.54;95220.69;6063776;28;110036;-74
2023/08/19 08:45:24;;;;;;;5.43;4.00;;;;;;;27.80;36.71;95219.34;6053682;28;108920;-71
2023/08/19 08:48:30;;;;;;;4.40;3.70;;;;;;;27.85;36.21;95219.09;6058187;28;109796;-71
2023/08/19 08:51:34;;;;;;;5.65;3.85;;;;;;;27.92;37.01;95222.03;6054104;28;109968;-71
2023/08/19 08:54:38;;;;;;;6.18;3.80;;;;;;;27.60;37.38;95215.66;6054849;28;109802;-69
2023/08/19 08:57:41;;;;;;;9.77;8.77;;;;;;;27.99;37.50;95224.94;6057908;28;110970;-71
2023/08/19 09:00:45;;;;;;;4.45;3.50;;;;;;;27.93;34.44;95229.78;6049114;28;109803;-69
2023/08/19 09:03:49;;;;;;;5.50;3.30;;;;;;;27.96;34.60;95226.41;6059664;28;109997;-72
2023/08/19 09:06:58;;;;;;;5.75;3.28;;;;;;;28.01;34.12;95226.16;6050648;28;109891;-72
2023/08/19 09:10:02;;;;;;;3.30;2.90;;;;;;;28.13;34.68;95219.19;6061562;28;111454;-73
2023/08/19 09:13:06;;;;;;;4.20;3.10;;;;;;;28.18;34.16;95229.72;6055771;28;109651;-73
2023/08/19 09:16:11;;;;;;;5.90;3.30;;;;;;;28.04;34.21;95220.09;6053861;28;109899;-73
2023/08/19 09:19:14;;;;;;;6.73;3.37;;;;;;;28.08;33.78;95214.06;6048594;28;110828;-70
2023/08/19 09:22:23;;;;;;;4.73;3.50;;;;;;;28.08;33.59;95222.91;6050954;28;110387;-73
2023/08/19 09:25:31;;;;;;;4.90;3.30;;;;;;;28.22;33.43;95214.44;6058059;28;110213;-72
2023/08/19 09:28:34;;;;;;;4.15;3.30;;;;;;;28.19;33.77;95221.28;6046419;28;110406;-72
2023/08/19 09:31:39;;;;;;;4.10;3.30;;;;;;;28.07;33.97;95218.66;6039556;28;109833;-74
2023/08/19 09:34:43;;;;;;;3.70;3.00;;;;;;;28.15;33.48;95217.72;6057208;28;110114;-74
2023/08/19 09:37:47;;;;;;;7.20;3.10;;;;;;;28.19;34.32;95198.97;6058879;28;110328;-74
2023/08/19 09:40:58;;;;;;;5.70;3.22;;;;;;;28.16;33.77;95199.66;6046683;28;110152;-72
2023/08/19 09:44:01;;;;;;;5.30;3.20;;;;;;;28.17;33.98;95198.53;6060394;28;111364;-71
2023/08/19 09:47:05;;;;;;;3.70;3.00;;;;;;;28.13;34.54;95206.53;6057063;28;109509;-70
2023/08/19 09:50:09;;;;;;;4.40;3.22;;;;;;;28.10;32.96;95206.44;6056194;28;109920;-72
2023/08/19 09:53:16;;;;;;;3.20;2.90;;;;;;;28.17;33.05;95203.94;6050715;28;109997;-69
2023/08/19 09:56:21;;;;;;;4.68;3.00;;;;;;;28.20;33.09;95204.03;6060884;28;110119;-73
2023/08/19 09:59:25;;;;;;;4.07;3.30;;;;;;;28.17;32.75;95214.69;6061853;28;109798;-73
2023/08/19 10:02:28;;;;;;;3.30;2.70;;;;;;;28.21;32.90;95196.72;6056278;28;109941;-71
2023/08/19 10:05:38;;;;;;;4.00;3.30;;;;;;;28.28;33.04;95199.63;6041125;28;109821;-73
2023/08/19 10:08:45;;;;;;;5.93;3.90;;;;;;;28.27;33.21;95201.53;6052745;28;110063;-73
2023/08/19 10:11:53;;;;;;;6.50;3.17;;;;;;;28.23;32.99;95191.81;6053605;28;110934;-73
2023/08/19 10:14:59;;;;;;;4.20;3.10;;;;;;;28.24;33.09;95209.53;6051191;28;110838;-72
2023/08/19 10:18:08;;;;;;;6.95;3.10;;;;;;;28.22;32.92;95198.28;6057181;28;113315;-72
2023/08/19 10:21:14;;;;;;;5.10;2.90;;;;;;;28.17;33.76;95204.72;6052670;28;109782;-71
2023/08/19 10:24:19;;;;;;;4.28;3.30;;;;;;;28.21;33.60;95185.97;6053517;28;109817;-74
2023/08/19 10:27:22;;;;;;;6.18;3.00;;;;;;;28.25;33.62;95187.66;6047900;28;110010;-74
2023/08/19 10:30:31;;;;;;;3.60;3.30;;;;;;;28.23;34.08;95189.91;6063011;28;110081;-73
2023/08/19 10:33:39;;;;;;;3.80;3.15;;;;;;;28.21;33.75;95180.59;6060106;28;109831;-73
2023/08/19 10:36:42;;;;;;;4.18;3.10;;;;;;;28.15;33.44;95188.13;6052156;28;109698;-75
2023/08/19 10:39:47;;;;;;;5.75;3.20;;;;;;;28.21;33.40;95183.28;6055791;28;110082;-73
2023/08/19 10:42:55;;;;;;;4.50;3.10;;;;;;;28.09;33.48;95172.56;6062926;28;109988;-73
2023/08/19 10:45:59;;;;;;;5.13;3.20;;;;;;;28.18;33.12;95189.34;6053764;28;109958;-74
2023/08/19 10:49:04;;;;;;;4.80;3.15;;;;;;;28.11;33.20;95181.09;6034638;28;109769;-76
2023/08/19 10:52:07;;;;;;;5.65;3.30;;;;;;;28.02;34.14;95187.38;6052100;28;109948;-72
2023/08/19 10:55:19;;;;;;;5.83;3.27;;;;;;;28.00;34.63;95189.63;6061018;28;110155;-70
2023/08/19 10:58:23;;;;;;;7.25;3.50;;;;;;;28.03;35.02;95190.84;6057361;28;109947;-72
2023/08/19 11:01:30;;;;;;;6.95;3.30;;;;;;;27.93;34.53;95194.81;6046597;28;109652;-74
2023/08/19 11:04:33;;;;;;;6.00;3.20;;;;;;;27.96;34.49;95191.44;6058214;28;109629;-73
2023/08/19 11:07:40;;;;;;;5.00;2.90;;;;;;;27.99;34.81;95192.66;6079030;28;110605;-76
2023/08/19 11:10:46;;;;;;;3.87;3.07;;;;;;;27.95;35.56;95189.88;6059701;28;110042;-72
2023/08/19 11:13:50;;;;;;;3.40;2.73;;;;;;;27.92;35.58;95182.47;6049945;28;111843;-70
2023/08/19 11:16:54;;;;;;;3.67;2.70;;;;;;;27.93;36.43;95184.03;6054294;28;110004;-73
2023/08/19 11:19:58;;;;;;;4.17;3.30;;;;;;;27.95;36.89;95184.47;6058003;28;109958;-70
2023/08/19 11:23:01;;;;;;;4.30;3.10;;;;;;;28.00;36.55;95178.06;6051783;28;110138;-70
2023/08/19 11:26:06;;;;;;;4.28;3.10;;;;;;;27.96;35.77;95186.03;6051203;28;109847;-74
2023/08/19 11:29:10;;;;;;;4.47;3.20;;;;;;;27.97;35.20;95171.47;6046043;28;110652;-73
2023/08/19 11:32:18;;;;;;;3.70;3.30;;;;;;;28.02;36.20;95175.81;6053871;28;110923;-73
2023/08/19 11:35:22;;;;;;;4.65;3.65;;;;;;;28.07;35.61;95166.75;6042689;28;109976;-75
2023/08/19 11:38:25;;;;;;;3.90;3.30;;;;;;;28.03;35.16;95163.94;6046544;28;110147;-74
2023/08/19 11:41:29;;;;;;;5.28;3.47;;;;;;;27.97;35.63;95171.47;6056563;28;111728;-72
2023/08/19 11:44:33;;;;;;;4.30;3.05;;;;;;;27.98;36.12;95166.88;6050062;28;110273;-72
2023/08/19 11:47:36;;;;;;;5.20;3.40;;;;;;;27.98;35.52;95166.88;6054041;28;109825;-70
2023/08/19 11:50:44;;;;;;;7.90;3.60;;;;;;;27.98;35.34;95170.34;6063162;28;109994;-74
2023/08/19 11:53:50;;;;;;;5.85;3.30;;;;;;;28.00;35.71;95161.94;6063716;28;109923;-76
2023/08/19 11:56:59;;;;;;;3.83;3.00;;;;;;;28.02;35.25;95151.59;6055530;28;109596;-76
2023/08/19 12:00:04;;;;;;;3.67;3.20;;;;;;;28.06;35.69;95149.81;6063811;28;109710;-75
2023/08/19 12:03:08;;;;;;;3.75;3.35;;;;;;;28.07;36.55;95142.53;6063078;28;109703;-76
2023/08/19 12:06:11;;;;;;;3.60;3.30;;;;;;;28.07;36.49;95148.69;6047285;28;109773;-74
2023/08/19 12:09:14;;;;;;;4.28;3.50;;;;;;;28.03;35.15;95148.56;6048126;28;109733;-73
2023/08/19 12:12:19;;;;;;;5.45;3.38;;;;;;;28.13;34.63;95150.00;6052176;28;109772;-74
2023/08/19 12:15:22;;;;;;;3.50;3.20;;;;;;;28.13;34.03;95149.22;6060108;28;109781;-62
2023/08/19 12:18:25;;;;;;;6.28;3.42;;;;;;;28.10;35.03;95144.53;6061178;28;109830;-66
2023/08/19 12:21:30;;;;;;;4.77;3.37;;;;;;;28.00;35.41;95148.47;6047919;28;129679;-64
2023/08/19 12:24:33;;;;;;;6.00;3.67;;;;;;;27.93;36.43;95141.00;6074852;28;111101;-62
2023/08/19 12:27:38;;;;;;;5.87;4.40;;;;;;;27.93;36.55;95143.69;6063779;28;109987;-62
2023/08/19 12:30:41;;;;;;;4.50;4.10;;;;;;;27.97;36.92;95139.19;6042530;28;110011;-62
2023/08/19 12:33:46;;;;;;;5.40;4.40;;;;;;;27.93;37.87;95138.31;6050986;28;109988;-62
2023/08/19 12:36:50;;;;;;;7.45;4.30;;;;;;;27.99;37.64;95142.31;6055997;28;109835;-62
2023/08/19 12:39:55;;;;;;;5.00;4.50;;;;;;;28.00;37.80;95135.81;6061159;28;110001;-67
2023/08/19 12:43:00;;;;;;;6.80;4.32;;;;;;;28.01;38.02;95126.59;6050521;28;109749;-67
2023/08/19 12:46:03;;;;;;;5.80;4.63;;;;;;;28.05;38.18;95138.25;6057275;28;109939;-66
2023/08/19 12:49:06;;;;;;;7.35;4.90;;;;;;;28.10;38.43;95131.06;6042253;28;109971;-68
2023/08/19 12:52:10;;;;;;;5.22;4.72;;;;;;;28.14;39.04;95137.34;6058778;28;109869;-68
2023/08/19 12:55:14;;;;;;;5.38;4.88;;;;;;;28.11;39.52;95132.66;6043290;28;111842;-67
2023/08/19 12:58:18;;;;;;;5.22;4.72;;;;;;;28.15;39.45;95128.13;6062725;28;109971;-68
2023/08/19 13:01:21;;;;;;;5.70;4.93;;;;;;;28.16;39.45;95135.09;6045734;28;110049;-68
2023/08/19 13:04:25;;;;;;;5.60;4.60;;;;;;;28.21;39.74;95143.69;6054624;28;110259;-69
2023/08/19 13:07:28;;;;;;;6.00;5.17;;;;;;;28.17;39.80;95133.97;6065225;28;109850;-68
2023/08/19 13:10:31;;;;;;;8.20;5.00;;;;;;;28.21;39.63;95129.44;6054577;28;110345;-69
2023/08/19 13:13:39;;;;;;;8.00;4.90;;;;;;;28.20;39.70;95138.66;6060920;28;109936;-69
2023/08/19 13:16:42;;;;;;;5.68;4.88;;;;;;;28.22;39.14;95129.09;6058247;28;109964;-69
2023/08/19 13:19:45;;;;;;;7.32;4.80;;;;;;;28.21;39.87;95124.06;6059770;28;109815;-68
2023/08/19 13:22:49;;;;;;;5.90;5.00;;;;;;;28.22;39.97;95121.03;6067073;28;109732;-67
2023/08/19 13:25:52;;;;;;;5.73;4.87;;;;;;;28.24;39.97;95118.03;6043561;28;109755;-66
2023/08/19 13:28:57;;;;;;;5.40;4.90;;;;;;;28.23;39.78;95113.75;6050467;28;111305;-67
2023/08/19 13:32:00;;;;;;;5.20;4.80;;;;;;;28.26;39.83;95113.06;6062054;28;109826;-68
2023/08/19 13:35:04;;;;;;;5.20;4.70;;;;;;;28.24;39.94;95115.31;6067816;28;110262;-68
2023/08/19 13:38:08;;;;;;;5.45;5.05;;;;;;;28.25;40.13;95116.88;6047175;28;111244;-69
2023/08/19 13:41:11;;;;;;;5.70;5.20;;;;;;;28.25;40.32;95114.19;6053788;28;110405;-68
2023/08/19 13:44:15;;;;;;;5.63;5.13;;;;;;;28.21;40.76;95108.69;6051885;28;112745;-68
2023/08/19 13:47:18;;;;;;;5.30;4.70;;;;;;;28.24;40.20;95109.94;6055014;28;109769;-68
2023/08/19 13:50:22;;;;;;;5.10;4.60;;;;;;;28.26;40.58;95110.38;6053843;28;109996;-68
2023/08/19 13:53:25;;;;;;;6.40;5.00;;;;;;;28.26;40.94;95108.47;6056303;28;109992;-68
2023/08/19 13:56:28;;;;;;;5.70;5.10;;;;;;;28.28;40.94;95110.81;6063289;28;109852;-67
2023/08/19 13:59:33;;;;;;;5.18;4.78;;;;;;;28.28;41.17;95105.44;6059843;28;109796;-67
2023/08/19 14:02:36;;;;;;;5.72;5.15;;;;;;;28.24;41.52;95112.63;6055513;28;109728;-69
2023/08/19 14:05:39;;;;;;;5.68;4.97;;;;;;;28.20;40.43;95117.13;6058767;28;110059;-67
2023/08/19 14:08:43;;;;;;;5.70;5.20;;;;;;;28.17;40.24;95110.53;6065308;28;110278;-68
2023/08/19 14:11:46;;;;;;;6.03;5.45;;;;;;;28.16;40.28;95118.94;6076364;28;109810;-68
2023/08/19 14:14:51;;;;;;;5.78;5.00;;;;;;;28.08;40.34;95119.88;6053482;28;109851;-69